sensor_id;sensor_type;location;lat;lon;timestamp;temperature;humidity
43015;DHT22;28637;50.554;7.032;2023-06-04T00:02:33;9.60;99.90
43015;DHT22;28637;50.554;7.032;2023-06-04T00:07:34;9.50;99.90
43015;DHT22;28637;50.554;7.032;2023-06-04T00:12:35;9.50;99.90
43015;DHT22;28637;50.554;7.032;2023-06-04T00:17:35;9.40;99.90
43015;DHT22;28637;50.554;7.032;2023-06-04T00:22:36;9.30;99.90
43015;DHT22;28637;50.554;7.032;2023-06-04T00:27:37;9.30;99.90
43015;DHT22;28637;50.554;7.032;2023-06-04T00:32:38;9.20;99.90
43015;DHT22;28637;50.554;7.032;2023-06-04T00:37:38;9.10;99.90
43015;DHT22;28637;50.554;7.032;2023-06-04T00:42:39;9.00;99.90
43015;DHT22;28637;50.554;7.032;2023-06-04T00:47:40;9.10;99.90
43015;DHT22;28637;50.554;7.032;2023-06-04T00:52:43;8.90;99.90
43015;DHT22;28637;50.554;7.032;2023-06-04T00:57:44;8.70;99.90
43015;DHT22;28637;50.554;7.032;2023-06-04T01:02:48;8.60;99.90
43015;DHT22;28637;50.554;7.032;2023-06-04T01:07:52;8.60;99.90
43015;DHT22;28637;50.554;7.032;2023-06-04T01:12:53;8.40;99.90
43015;DHT22;28637;50.554;7.032;2023-06-04T01:17:59;8.30;99.90
43015;DHT22;28637;50.554;7.032;2023-06-04T01:23:28;8.30;99.90
43015;DHT22;28637;50.554;7.032;2023-06-04T01:28:34;8.30;99.90
43015;DHT22;28637;50.554;7.032;2023-06-04T01:33:35;8.30;99.90
43015;DHT22;28637;50.554;7.032;2023-06-04T01:38:36;8.20;99.90
43015;DHT22;28637;50.554;7.032;2023-06-04T01:43:37;8.20;99.90
43015;DHT22;28637;50.554;7.032;2023-06-04T01:48:37;8.10;99.90
43015;DHT22;28637;50.554;7.032;2023-06-04T01:53:39;8.00;99.90
43015;DHT22;28637;50.554;7.032;2023-06-04T01:58:40;8.10;99.90
43015;DHT22;28637;50.554;7.032;2023-06-04T02:03:41;8.10;99.90
43015;DHT22;28637;50.554;7.032;2023-06-04T02:08:43;8.10;99.90
43015;DHT22;28637;50.554;7.032;2023-06-04T02:13:43;8.00;99.90
43015;DHT22;28637;50.554;7.032;2023-06-04T02:18:44;8.10;99.90
43015;DHT22;28637;50.554;7.032;2023-06-04T02:23:44;8.10;99.90
43015;DHT22;28637;50.554;7.032;2023-06-04T02:28:45;8.20;99.90
43015;DHT22;28637;50.554;7.032;2023-06-04T02:33:46;8.20;99.90
43015;DHT22;28637;50.554;7.032;2023-06-04T02:38:46;8.10;99.90
43015;DHT22;28637;50.554;7.032;2023-06-04T02:43:47;8.10;99.90
43015;DHT22;28637;50.554;7.032;2023-06-04T02:48:47;7.80;99.90
43015;DHT22;28637;50.554;7.032;2023-06-04T02:53:48;7.60;99.90
43015;DHT22;28637;50.554;7.032;2023-06-04T02:58:52;7.60;99.90
43015;DHT22;28637;50.554;7.032;2023-06-04T03:03:54;7.60;99.90
43015;DHT22;28637;50.554;7.032;2023-06-04T03:08:55;7.60;99.90
43015;DHT22;28637;50.554;7.032;2023-06-04T03:13:56;7.60;99.90
43015;DHT22;28637;50.554;7.032;2023-06-04T03:18:56;7.60;99.90
43015;DHT22;28637;50.554;7.032;2023-06-04T03:23:57;7.60;99.90
43015;DHT22;28637;50.554;7.032;2023-06-04T03:28:57;7.70;99.90
43015;DHT22;28637;50.554;7.032;2023-06-04T03:33:59;7.60;99.90
43015;DHT22;28637;50.554;7.032;2023-06-04T03:39:00;7.60;99.90
43015;DHT22;28637;50.554;7.032;2023-06-04T03:44:00;7.70;99.90
43015;DHT22;28637;50.554;7.032;2023-06-04T03:49:02;7.70;99.90
43015;DHT22;28637;50.554;7.032;2023-06-04T03:54:03;7.50;99.90
43015;DHT22;28637;50.554;7.032;2023-06-04T03:59:04;7.50;99.90
43015;DHT22;28637;50.554;7.032;2023-06-04T04:04:05;7.60;99.90
43015;DHT22;28637;50.554;7.032;2023-06-04T04:09:05;7.50;99.90
43015;DHT22;28637;50.554;7.032;2023-06-04T04:14:06;7.60;99.90
43015;DHT22;28637;50.554;7.032;2023-06-04T04:19:07;7.70;99.90
43015;DHT22;28637;50.554;7.032;2023-06-04T04:24:08;7.80;99.90
43015;DHT22;28637;50.554;7.032;2023-06-04T04:29:09;8.00;99.90
43015;DHT22;28637;50.554;7.032;2023-06-04T04:34:10;8.00;99.90
43015;DHT22;28637;50.554;7.032;2023-06-04T04:39:10;8.20;99.90
43015;DHT22;28637;50.554;7.032;2023-06-04T04:44:12;8.50;99.90
43015;DHT22;28637;50.554;7.032;2023-06-04T04:49:12;8.60;99.90
43015;DHT22;28637;50.554;7.032;2023-06-04T04:54:13;8.80;99.90
43015;DHT22;28637;50.554;7.032;2023-06-04T04:59:14;9.10;99.90
43015;DHT22;28637;50.554;7.032;2023-06-04T05:04:14;9.40;99.90
43015;DHT22;28637;50.554;7.032;2023-06-04T05:09:15;9.60;99.90
43015;DHT22;28637;50.554;7.032;2023-06-04T05:14:16;9.80;99.90
43015;DHT22;28637;50.554;7.032;2023-06-04T05:19:17;10.10;99.90
43015;DHT22;28637;50.554;7.032;2023-06-04T05:24:18;10.40;99.90
43015;DHT22;28637;50.554;7.032;2023-06-04T05:29:18;10.60;99.90
43015;DHT22;28637;50.554;7.032;2023-06-04T05:34:19;10.80;99.90
43015;DHT22;28637;50.554;7.032;2023-06-04T05:39:22;11.10;99.90
43015;DHT22;28637;50.554;7.032;2023-06-04T05:44:24;11.50;99.90
43015;DHT22;28637;50.554;7.032;2023-06-04T05:49:24;11.70;99.90
43015;DHT22;28637;50.554;7.032;2023-06-04T05:54:28;12.00;99.90
43015;DHT22;28637;50.554;7.032;2023-06-04T05:59:29;12.30;99.90
43015;DHT22;28637;50.554;7.032;2023-06-04T06:04:30;12.60;99.90
43015;DHT22;28637;50.554;7.032;2023-06-04T06:09:31;13.00;99.90
43015;DHT22;28637;50.554;7.032;2023-06-04T06:14:32;13.30;99.90
43015;DHT22;28637;50.554;7.032;2023-06-04T06:19:32;13.60;99.90
43015;DHT22;28637;50.554;7.032;2023-06-04T06:24:33;13.90;99.90
43015;DHT22;28637;50.554;7.032;2023-06-04T06:29:34;14.30;99.90
43015;DHT22;28637;50.554;7.032;2023-06-04T06:34:34;14.60;99.90
43015;DHT22;28637;50.554;7.032;2023-06-04T06:39:35;14.70;99.90
43015;DHT22;28637;50.554;7.032;2023-06-04T06:44:36;15.00;99.90
43015;DHT22;28637;50.554;7.032;2023-06-04T06:49:37;15.50;99.90
43015;DHT22;28637;50.554;7.032;2023-06-04T06:54:37;15.90;99.90
43015;DHT22;28637;50.554;7.032;2023-06-04T06:59:38;16.10;99.90
43015;DHT22;28637;50.554;7.032;2023-06-04T07:04:39;16.30;99.90
43015;DHT22;28637;50.554;7.032;2023-06-04T07:09:39;16.50;99.90
43015;DHT22;28637;50.554;7.032;2023-06-04T07:14:40;16.50;99.90
43015;DHT22;28637;50.554;7.032;2023-06-04T07:19:40;16.70;99.90
43015;DHT22;28637;50.554;7.032;2023-06-04T07:24:42;16.80;99.90
43015;DHT22;28637;50.554;7.032;2023-06-04T07:29:45;17.00;98.80
43015;DHT22;28637;50.554;7.032;2023-06-04T07:34:46;17.20;97.90
43015;DHT22;28637;50.554;7.032;2023-06-04T07:39:46;17.40;98.60
43015;DHT22;28637;50.554;7.032;2023-06-04T07:44:47;17.50;98.00
43015;DHT22;28637;50.554;7.032;2023-06-04T07:49:47;17.60;97.50
43015;DHT22;28637;50.554;7.032;2023-06-04T07:54:48;17.60;96.60
43015;DHT22;28637;50.554;7.032;2023-06-04T07:59:49;17.70;96.60
43015;DHT22;28637;50.554;7.032;2023-06-04T08:04:50;17.90;96.60
43015;DHT22;28637;50.554;7.032;2023-06-04T08:09:51;18.10;97.80
43015;DHT22;28637;50.554;7.032;2023-06-04T08:14:52;18.40;98.00
43015;DHT22;28637;50.554;7.032;2023-06-04T08:19:57;18.70;96.80
43015;DHT22;28637;50.554;7.032;2023-06-04T08:24:58;18.80;96.60
43015;DHT22;28637;50.554;7.032;2023-06-04T08:29:58;18.80;96.30
43015;DHT22;28637;50.554;7.032;2023-06-04T08:34:59;19.00;95.30
43015;DHT22;28637;50.554;7.032;2023-06-04T08:40:00;19.10;95.70
43015;DHT22;28637;50.554;7.032;2023-06-04T08:45:01;19.20;95.20
43015;DHT22;28637;50.554;7.032;2023-06-04T08:50:04;19.30;93.60
43015;DHT22;28637;50.554;7.032;2023-06-04T08:55:06;19.40;94.00
43015;DHT22;28637;50.554;7.032;2023-06-04T09:00:07;19.40;95.50
43015;DHT22;28637;50.554;7.032;2023-06-04T09:05:09;19.60;95.00
43015;DHT22;28637;50.554;7.032;2023-06-04T09:10:12;19.80;93.60
43015;DHT22;28637;50.554;7.032;2023-06-04T09:15:15;20.00;93.80
43015;DHT22;28637;50.554;7.032;2023-06-04T09:20:20;20.10;93.20
43015;DHT22;28637;50.554;7.032;2023-06-04T09:25:23;20.10;93.60
43015;DHT22;28637;50.554;7.032;2023-06-04T09:30:25;20.30;93.50
43015;DHT22;28637;50.554;7.032;2023-06-04T09:35:26;20.60;91.60
43015;DHT22;28637;50.554;7.032;2023-06-04T09:40:35;20.60;93.00
43015;DHT22;28637;50.554;7.032;2023-06-04T09:45:37;20.80;91.70
43015;DHT22;28637;50.554;7.032;2023-06-04T09:50:38;21.00;92.40
43015;DHT22;28637;50.554;7.032;2023-06-04T09:55:40;21.10;91.60
43015;DHT22;28637;50.554;7.032;2023-06-04T10:00:41;21.30;91.50
43015;DHT22;28637;50.554;7.032;2023-06-04T10:05:45;21.40;91.00
43015;DHT22;28637;50.554;7.032;2023-06-04T10:10:45;21.50;90.90
43015;DHT22;28637;50.554;7.032;2023-06-04T10:15:47;21.70;89.40
43015;DHT22;28637;50.554;7.032;2023-06-04T10:20:49;21.80;87.00
43015;DHT22;28637;50.554;7.032;2023-06-04T10:25:51;22.00;86.60
43015;DHT22;28637;50.554;7.032;2023-06-04T10:30:52;22.20;87.00
43015;DHT22;28637;50.554;7.032;2023-06-04T10:35:54;22.20;87.70
43015;DHT22;28637;50.554;7.032;2023-06-04T10:40:58;22.20;84.20
43015;DHT22;28637;50.554;7.032;2023-06-04T10:46:14;22.40;83.20
43015;DHT22;28637;50.554;7.032;2023-06-04T10:51:16;22.60;81.60
43015;DHT22;28637;50.554;7.032;2023-06-04T10:56:28;22.80;80.20
43015;DHT22;28637;50.554;7.032;2023-06-04T11:01:29;22.80;80.10
43015;DHT22;28637;50.554;7.032;2023-06-04T11:06:31;22.90;79.90
43015;DHT22;28637;50.554;7.032;2023-06-04T11:11:33;23.00;79.70
43015;DHT22;28637;50.554;7.032;2023-06-04T11:16:33;23.20;80.70
43015;DHT22;28637;50.554;7.032;2023-06-04T11:21:35;23.40;77.60
43015;DHT22;28637;50.554;7.032;2023-06-04T11:26:37;23.60;77.70
43015;DHT22;28637;50.554;7.032;2023-06-04T11:31:41;23.70;76.20
43015;DHT22;28637;50.554;7.032;2023-06-04T11:36:42;23.60;72.60
43015;DHT22;28637;50.554;7.032;2023-06-04T11:41:43;23.80;69.30
43015;DHT22;28637;50.554;7.032;2023-06-04T11:46:44;23.70;69.20
43015;DHT22;28637;50.554;7.032;2023-06-04T11:51:48;24.00;68.40
43015;DHT22;28637;50.554;7.032;2023-06-04T11:56:51;24.20;69.90
43015;DHT22;28637;50.554;7.032;2023-06-04T12:01:51;24.50;70.50
43015;DHT22;28637;50.554;7.032;2023-06-04T12:06:59;24.60;67.40
43015;DHT22;28637;50.554;7.032;2023-06-04T12:12:03;24.80;66.90
43015;DHT22;28637;50.554;7.032;2023-06-04T12:17:08;24.90;66.30
43015;DHT22;28637;50.554;7.032;2023-06-04T12:22:09;24.90;68.00
43015;DHT22;28637;50.554;7.032;2023-06-04T12:27:09;25.00;70.00
43015;DHT22;28637;50.554;7.032;2023-06-04T12:32:11;25.20;64.10
43015;DHT22;28637;50.554;7.032;2023-06-04T12:37:12;25.30;69.40
43015;DHT22;28637;50.554;7.032;2023-06-04T12:42:12;25.40;68.00
43015;DHT22;28637;50.554;7.032;2023-06-04T12:47:13;25.40;63.90
43015;DHT22;28637;50.554;7.032;2023-06-04T12:52:16;25.40;65.90
43015;DHT22;28637;50.554;7.032;2023-06-04T12:57:17;25.50;66.20
43015;DHT22;28637;50.554;7.032;2023-06-04T13:02:17;25.50;64.30
43015;DHT22;28637;50.554;7.032;2023-06-04T13:07:18;25.60;62.40
43015;DHT22;28637;50.554;7.032;2023-06-04T13:12:19;25.60;63.80
43015;DHT22;28637;50.554;7.032;2023-06-04T13:17:19;25.60;63.80
43015;DHT22;28637;50.554;7.032;2023-06-04T13:22:20;25.80;61.90
43015;DHT22;28637;50.554;7.032;2023-06-04T13:27:21;26.10;61.50
43015;DHT22;28637;50.554;7.032;2023-06-04T13:32:21;26.40;65.60
43015;DHT22;28637;50.554;7.032;2023-06-04T13:37:22;26.20;63.40
43015;DHT22;28637;50.554;7.032;2023-06-04T13:42:23;26.50;61.10
43015;DHT22;28637;50.554;7.032;2023-06-04T13:47:23;26.60;61.30
43015;DHT22;28637;50.554;7.032;2023-06-04T13:52:24;26.90;60.80
43015;DHT22;28637;50.554;7.032;2023-06-04T13:57:25;27.00;58.20
43015;DHT22;28637;50.554;7.032;2023-06-04T14:02:26;27.10;59.20
43015;DHT22;28637;50.554;7.032;2023-06-04T14:07:27;27.10;61.60
43015;DHT22;28637;50.554;7.032;2023-06-04T14:12:27;27.00;58.80
43015;DHT22;28637;50.554;7.032;2023-06-04T14:17:28;27.30;59.60
43015;DHT22;28637;50.554;7.032;2023-06-04T14:22:29;27.40;58.60
43015;DHT22;28637;50.554;7.032;2023-06-04T14:27:29;27.50;58.20
43015;DHT22;28637;50.554;7.032;2023-06-04T14:32:30;27.40;59.80
43015;DHT22;28637;50.554;7.032;2023-06-04T14:37:32;27.40;54.60
43015;DHT22;28637;50.554;7.032;2023-06-04T14:42:33;27.40;57.50
43015;DHT22;28637;50.554;7.032;2023-06-04T14:47:33;27.60;57.10
43015;DHT22;28637;50.554;7.032;2023-06-04T14:52:34;27.70;57.10
43015;DHT22;28637;50.554;7.032;2023-06-04T14:57:35;27.70;54.00
43015;DHT22;28637;50.554;7.032;2023-06-04T15:02:35;27.80;55.20
43015;DHT22;28637;50.554;7.032;2023-06-04T15:07:36;27.80;54.10
43015;DHT22;28637;50.554;7.032;2023-06-04T15:12:38;27.90;51.70
43015;DHT22;28637;50.554;7.032;2023-06-04T15:17:39;28.00;53.20
43015;DHT22;28637;50.554;7.032;2023-06-04T15:22:40;28.10;52.80
43015;DHT22;28637;50.554;7.032;2023-06-04T15:27:40;28.00;54.40
43015;DHT22;28637;50.554;7.032;2023-06-04T15:32:41;28.00;52.20
43015;DHT22;28637;50.554;7.032;2023-06-04T15:37:42;28.10;51.80
43015;DHT22;28637;50.554;7.032;2023-06-04T15:42:43;28.20;53.50
43015;DHT22;28637;50.554;7.032;2023-06-04T15:47:43;28.20;52.30
43015;DHT22;28637;50.554;7.032;2023-06-04T15:52:45;28.20;52.20
43015;DHT22;28637;50.554;7.032;2023-06-04T15:57:46;28.50;52.00
43015;DHT22;28637;50.554;7.032;2023-06-04T16:02:47;28.40;51.60
43015;DHT22;28637;50.554;7.032;2023-06-04T16:08:07;28.50;52.40
43015;DHT22;28637;50.554;7.032;2023-06-04T16:13:07;28.50;53.30
43015;DHT22;28637;50.554;7.032;2023-06-04T16:18:08;28.40;52.40
43015;DHT22;28637;50.554;7.032;2023-06-04T16:23:09;28.40;53.40
43015;DHT22;28637;50.554;7.032;2023-06-04T16:28:10;28.40;51.80
43015;DHT22;28637;50.554;7.032;2023-06-04T16:33:11;28.30;53.20
43015;DHT22;28637;50.554;7.032;2023-06-04T16:38:11;28.30;52.90
43015;DHT22;28637;50.554;7.032;2023-06-04T16:43:12;28.20;52.60
43015;DHT22;28637;50.554;7.032;2023-06-04T16:48:13;28.10;51.90
43015;DHT22;28637;50.554;7.032;2023-06-04T16:53:14;28.10;52.20
43015;DHT22;28637;50.554;7.032;2023-06-04T16:58:14;28.10;51.50
43015;DHT22;28637;50.554;7.032;2023-06-04T17:03:16;28.10;50.90
43015;DHT22;28637;50.554;7.032;2023-06-04T17:08:16;28.10;51.40
43015;DHT22;28637;50.554;7.032;2023-06-04T17:13:17;28.00;52.60
43015;DHT22;28637;50.554;7.032;2023-06-04T17:18:18;27.70;53.50
43015;DHT22;28637;50.554;7.032;2023-06-04T17:23:25;27.60;52.90
43015;DHT22;28637;50.554;7.032;2023-06-04T17:28:25;27.30;53.30
43015;DHT22;28637;50.554;7.032;2023-06-04T17:33:26;27.20;53.30
43015;DHT22;28637;50.554;7.032;2023-06-04T17:38:27;27.00;54.70
43015;DHT22;28637;50.554;7.032;2023-06-04T17:43:28;26.80;55.10
43015;DHT22;28637;50.554;7.032;2023-06-04T17:48:28;26.70;56.80
43015;DHT22;28637;50.554;7.032;2023-06-04T17:53:29;26.50;56.50
43015;DHT22;28637;50.554;7.032;2023-06-04T17:58:30;26.30;58.00
43015;DHT22;28637;50.554;7.032;2023-06-04T18:03:31;26.00;57.40
43015;DHT22;28637;50.554;7.032;2023-06-04T18:08:31;25.70;58.50
43015;DHT22;28637;50.554;7.032;2023-06-04T18:13:32;25.40;59.30
43015;DHT22;28637;50.554;7.032;2023-06-04T18:18:33;25.10;60.80
43015;DHT22;28637;50.554;7.032;2023-06-04T18:23:34;24.90;62.00
43015;DHT22;28637;50.554;7.032;2023-06-04T18:28:34;24.70;62.00
43015;DHT22;28637;50.554;7.032;2023-06-04T18:33:35;24.30;60.30
43015;DHT22;28637;50.554;7.032;2023-06-04T18:38:38;23.90;60.70
43015;DHT22;28637;50.554;7.032;2023-06-04T18:43:38;23.50;60.40
43015;DHT22;28637;50.554;7.032;2023-06-04T18:48:39;23.20;61.30
43015;DHT22;28637;50.554;7.032;2023-06-04T18:53:40;23.00;60.90
43015;DHT22;28637;50.554;7.032;2023-06-04T18:58:41;22.70;61.50
43015;DHT22;28637;50.554;7.032;2023-06-04T19:03:45;22.40;61.60
43015;DHT22;28637;50.554;7.032;2023-06-04T19:08:45;22.20;62.20
43015;DHT22;28637;50.554;7.032;2023-06-04T19:13:46;22.00;62.50
43015;DHT22;28637;50.554;7.032;2023-06-04T19:18:47;21.70;63.60
43015;DHT22;28637;50.554;7.032;2023-06-04T19:23:47;21.40;67.20
43015;DHT22;28637;50.554;7.032;2023-06-04T19:28:48;21.00;69.20
43015;DHT22;28637;50.554;7.032;2023-06-04T19:33:48;20.60;68.90
43015;DHT22;28637;50.554;7.032;2023-06-04T19:38:49;20.30;70.60
43015;DHT22;28637;50.554;7.032;2023-06-04T19:43:50;20.00;72.50
43015;DHT22;28637;50.554;7.032;2023-06-04T19:48:50;19.50;74.80
43015;DHT22;28637;50.554;7.032;2023-06-04T19:53:51;18.90;76.40
43015;DHT22;28637;50.554;7.032;2023-06-04T19:58:52;18.40;78.50
43015;DHT22;28637;50.554;7.032;2023-06-04T20:03:52;17.90;80.20
43015;DHT22;28637;50.554;7.032;2023-06-04T20:08:53;17.60;81.10
43015;DHT22;28637;50.554;7.032;2023-06-04T20:13:53;17.30;83.10
43015;DHT22;28637;50.554;7.032;2023-06-04T20:18:54;16.90;83.70
43015;DHT22;28637;50.554;7.032;2023-06-04T20:23:55;16.50;84.80
43015;DHT22;28637;50.554;7.032;2023-06-04T20:28:56;16.10;86.80
43015;DHT22;28637;50.554;7.032;2023-06-04T20:33:56;15.70;89.60
43015;DHT22;28637;50.554;7.032;2023-06-04T20:38:57;15.30;90.70
43015;DHT22;28637;50.554;7.032;2023-06-04T20:43:58;15.00;92.40
43015;DHT22;28637;50.554;7.032;2023-06-04T20:48:58;14.80;95.30
43015;DHT22;28637;50.554;7.032;2023-06-04T20:54:02;14.70;98.20
43015;DHT22;28637;50.554;7.032;2023-06-04T20:59:03;14.70;99.90
43015;DHT22;28637;50.554;7.032;2023-06-04T21:04:03;14.50;99.90
43015;DHT22;28637;50.554;7.032;2023-06-04T21:09:06;14.30;99.90
43015;DHT22;28637;50.554;7.032;2023-06-04T21:14:06;14.20;99.90
43015;DHT22;28637;50.554;7.032;2023-06-04T21:19:07;13.90;99.90
43015;DHT22;28637;50.554;7.032;2023-06-04T21:24:08;13.60;99.90
43015;DHT22;28637;50.554;7.032;2023-06-04T21:29:08;13.50;99.90
43015;DHT22;28637;50.554;7.032;2023-06-04T21:34:09;13.20;99.90
43015;DHT22;28637;50.554;7.032;2023-06-04T21:39:10;13.10;99.90
43015;DHT22;28637;50.554;7.032;2023-06-04T21:44:11;13.00;99.90
43015;DHT22;28637;50.554;7.032;2023-06-04T21:49:11;12.80;99.90
43015;DHT22;28637;50.554;7.032;2023-06-04T21:54:12;12.60;99.90
43015;DHT22;28637;50.554;7.032;2023-06-04T21:59:13;12.60;99.90
43015;DHT22;28637;50.554;7.032;2023-06-04T22:04:13;12.30;99.90
43015;DHT22;28637;50.554;7.032;2023-06-04T22:09:14;12.30;99.90
43015;DHT22;28637;50.554;7.032;2023-06-04T22:14:15;12.40;99.90
43015;DHT22;28637;50.554;7.032;2023-06-04T22:19:15;12.20;99.90
43015;DHT22;28637;50.554;7.032;2023-06-04T22:24:16;12.00;99.90
43015;DHT22;28637;50.554;7.032;2023-06-04T22:29:16;12.10;99.90
43015;DHT22;28637;50.554;7.032;2023-06-04T22:34:17;12.10;99.90
43015;DHT22;28637;50.554;7.032;2023-06-04T22:39:18;12.10;99.90
43015;DHT22;28637;50.554;7.032;2023-06-04T22:44:18;12.00;99.90
43015;DHT22;28637;50.554;7.032;2023-06-04T22:49:19;11.80;99.90
43015;DHT22;28637;50.554;7.032;2023-06-04T22:54:20;11.80;99.90
43015;DHT22;28637;50.554;7.032;2023-06-04T22:59:20;11.80;99.90
43015;DHT22;28637;50.554;7.032;2023-06-04T23:04:21;11.90;99.90
43015;DHT22;28637;50.554;7.032;2023-06-04T23:09:21;11.90;99.90
43015;DHT22;28637;50.554;7.032;2023-06-04T23:14:22;11.80;99.90
43015;DHT22;28637;50.554;7.032;2023-06-04T23:19:22;11.80;99.90
43015;DHT22;28637;50.554;7.032;2023-06-04T23:24:23;11.60;99.90
43015;DHT22;28637;50.554;7.032;2023-06-04T23:29:24;11.50;99.90
43015;DHT22;28637;50.554;7.032;2023-06-04T23:34:24;11.30;99.90
43015;DHT22;28637;50.554;7.032;2023-06-04T23:39:25;11.30;99.90
43015;DHT22;28637;50.554;7.032;2023-06-04T23:44:26;11.20;99.90
43015;DHT22;28637;50.554;7.032;2023-06-04T23:49:26;11.00;99.90
43015;DHT22;28637;50.554;7.032;2023-06-04T23:54:27;10.90;99.90
43015;DHT22;28637;50.554;7.032;2023-06-04T23:59:28;10.90;99.90
